createdAt,value
2023-01-08T00:00:05.582Z,1342.4
2023-01-08T00:01:05.600Z,1342.6
2023-01-08T00:02:05.607Z,1342.9
2023-01-08T00:03:05.828Z,1342.3
2023-01-08T00:04:05.621Z,1343.2
2023-01-08T00:05:05.596Z,1342.7
2023-01-08T00:06:05.595Z,1342.4
2023-01-08T00:07:05.655Z,1340.8
2023-01-08T00:08:05.579Z,1341.1
2023-01-08T00:09:05.584Z,1341.7
2023-01-08T00:10:05.583Z,1343.3
2023-01-08T00:11:05.597Z,1343.4
2023-01-08T00:12:05.587Z,1342.5
2023-01-08T00:13:05.608Z,1343.4
2023-01-08T00:14:05.587Z,1342.5
2023-01-08T00:15:05.608Z,1342.5
2023-01-08T00:16:05.702Z,1342.6
2023-01-08T00:17:05.589Z,1342
2023-01-08T00:18:06.936Z,1343.2
2023-01-08T00:19:05.610Z,1342.5
2023-01-08T00:20:05.591Z,1342.5
2023-01-08T00:21:05.590Z,1343.2
2023-01-08T00:22:05.612Z,1343.1
2023-01-08T00:23:05.588Z,1343.2
2023-01-08T00:24:05.601Z,1343
2023-01-08T00:25:05.595Z,1342.8
2023-01-08T00:26:05.603Z,1340.9
2023-01-08T00:27:05.594Z,1343.2
2023-01-08T00:28:05.588Z,1343.7
2023-01-08T00:29:05.672Z,1342.9
2023-01-08T00:30:05.596Z,1342.6
2023-01-08T00:31:06.263Z,1343.5
2023-01-08T00:32:05.592Z,1343.7
2023-01-08T00:33:05.598Z,1343.5
2023-01-08T00:34:06.876Z,1342.9
2023-01-08T00:35:05.593Z,1343
2023-01-08T00:36:05.662Z,1343.2
2023-01-08T00:37:05.598Z,1342.9
2023-01-08T00:38:05.602Z,1342.5
2023-01-08T00:39:05.616Z,1342.2
2023-01-08T00:40:05.593Z,1344
2023-01-08T00:41:05.602Z,1342.9
2023-01-08T00:42:05.592Z,1343.4
2023-01-08T00:43:05.600Z,1343.1
2023-01-08T00:44:05.607Z,1343.3
2023-01-08T00:45:05.592Z,1343.6
2023-01-08T00:46:05.677Z,1343.3
2023-01-08T00:47:05.595Z,1343.7
2023-01-08T00:48:05.620Z,1342.8
2023-01-08T00:49:05.587Z,1342.9
2023-01-08T00:50:05.591Z,1343.3
2023-01-08T00:51:05.590Z,1343.6
2023-01-08T00:52:07.656Z,1344.2
2023-01-08T00:53:05.590Z,1343.8
2023-01-08T00:54:05.604Z,1343.2
2023-01-08T00:55:05.589Z,1342.9
2023-01-08T00:56:05.610Z,1342.4
2023-01-08T00:57:05.606Z,1343
2023-01-08T00:58:05.596Z,1341.7
2023-01-08T00:59:05.590Z,1341.6
2023-01-08T01:00:05.586Z,1342.1
2023-01-08T01:02:05.724Z,1342.1
2023-01-08T01:03:05.612Z,1342.7
2023-01-08T01:04:05.646Z,1342.9
2023-01-08T01:05:05.727Z,1343.1
2023-01-08T01:06:05.596Z,1342.6
2023-01-08T01:07:05.605Z,1342.2
2023-01-08T01:08:05.590Z,1342.6
2023-01-08T01:09:05.597Z,1342.3
2023-01-08T01:10:05.603Z,1341.9
2023-01-08T01:11:05.600Z,1341.6
2023-01-08T01:12:05.600Z,1342
2023-01-08T01:13:05.605Z,1341.5
2023-01-08T01:14:05.618Z,1341.8
2023-01-08T01:15:05.586Z,1342.9
2023-01-08T01:16:05.600Z,1341.8
2023-01-08T01:17:05.651Z,1341.5
2023-01-08T01:18:05.586Z,1341.4
2023-01-08T01:19:05.604Z,1342.3
2023-01-08T01:20:05.630Z,1342.1
2023-01-08T01:21:05.612Z,1341.1
2023-01-08T01:22:05.595Z,1341.8
2023-01-08T01:23:05.600Z,1341.5
2023-01-08T01:24:05.600Z,1342.6
2023-01-08T01:25:05.595Z,1341.2
2023-01-08T01:26:05.601Z,1342.5
2023-01-08T01:27:05.609Z,1341.9
2023-01-08T01:28:05.598Z,1342.6
2023-01-08T01:29:05.608Z,1342.1
2023-01-08T01:30:05.632Z,1342.1
2023-01-08T01:32:05.617Z,1342.7
2023-01-08T01:33:05.603Z,1341.5
2023-01-08T01:34:05.594Z,1341
2023-01-08T01:35:05.608Z,1342.4
2023-01-08T01:37:05.593Z,1341.9
2023-01-08T01:38:05.600Z,1341.6
2023-01-08T01:39:05.608Z,1341.7
2023-01-08T01:40:05.594Z,1338.7
2023-01-08T01:41:05.602Z,1339.2
2023-01-08T01:42:05.607Z,1338.7
2023-01-08T01:43:05.600Z,1338.9
2023-01-08T01:44:05.594Z,1339
2023-01-08T01:45:05.610Z,1339.7
2023-01-08T01:46:05.633Z,1339.5
2023-01-08T01:47:05.601Z,1339.7
2023-01-08T01:48:05.611Z,1339.7
2023-01-08T01:49:05.622Z,1339.2
2023-01-08T01:50:05.614Z,1340
2023-01-08T01:51:05.604Z,1339.9
2023-01-08T01:52:05.611Z,1339.3
2023-01-08T01:53:05.604Z,1339.1
2023-01-08T01:54:05.638Z,1339.2
2023-01-08T01:55:05.605Z,1339
2023-01-08T01:56:05.611Z,1339.8
2023-01-08T01:57:05.601Z,1340
2023-01-08T01:58:05.601Z,1339.6
2023-01-08T01:59:05.606Z,1339.1
2023-01-08T02:00:05.607Z,1339.5
2023-01-08T02:01:05.663Z,1337.4
2023-01-08T02:02:05.765Z,1338.2
2023-01-08T02:03:05.605Z,1339
2023-01-08T02:04:05.703Z,1338.7
2023-01-08T02:05:05.603Z,1338.6
2023-01-08T02:06:05.809Z,1337.6
2023-01-08T02:07:05.717Z,1338.6
2023-01-08T02:08:05.609Z,1337.4
2023-01-08T02:09:05.604Z,1338.5
2023-01-08T02:10:05.601Z,1339.3
2023-01-08T02:11:05.609Z,1338
2023-01-08T02:12:05.599Z,1339.9
2023-01-08T02:13:05.606Z,1338.9
2023-01-08T02:14:05.599Z,1338.8
2023-01-08T02:15:05.606Z,1338.5
2023-01-08T02:16:05.612Z,1339
2023-01-08T02:17:05.656Z,1337.3
2023-01-08T02:18:05.605Z,1338.2
2023-01-08T02:20:05.603Z,1338.8
2023-01-08T02:21:05.605Z,1336.7
2023-01-08T02:22:05.600Z,1336.3
2023-01-08T02:23:05.601Z,1336.8
2023-01-08T02:24:05.630Z,1336.4
2023-01-08T02:25:05.626Z,1336.4
2023-01-08T02:26:05.642Z,1336.6
2023-01-08T02:27:05.622Z,1337.2
2023-01-08T02:28:05.602Z,1336.5
2023-01-08T02:29:05.611Z,1336.9
2023-01-08T02:30:05.604Z,1336.9
2023-01-08T02:32:05.613Z,1336.5
2023-01-08T02:33:05.605Z,1336.8
2023-01-08T02:35:05.612Z,1337.3
2023-01-08T02:36:05.607Z,1336.7
2023-01-08T02:37:05.618Z,1336.7
2023-01-08T02:38:05.724Z,1336.3
2023-01-08T02:39:05.611Z,1336.7
2023-01-08T02:40:05.603Z,1336.7
2023-01-08T02:41:05.609Z,1335.7
2023-01-08T02:42:05.626Z,1336.3
2023-01-08T02:43:05.622Z,1335.1
2023-01-08T02:44:05.608Z,1337.1
2023-01-08T02:45:05.643Z,1335.1
2023-01-08T02:46:05.687Z,1336.8
2023-01-08T02:47:05.618Z,1335.6
2023-01-08T02:48:05.613Z,1335.4
2023-01-08T02:49:05.605Z,1336.4
2023-01-08T02:50:05.631Z,1336
2023-01-08T02:51:05.613Z,1336.6
2023-01-08T02:52:05.609Z,1336.4
2023-01-08T02:53:05.615Z,1334.5
2023-01-08T02:54:05.602Z,1335
2023-01-08T02:55:05.609Z,1334.8
2023-01-08T02:56:05.613Z,1334.2
2023-01-08T02:57:05.606Z,1334.5
2023-01-08T02:58:05.628Z,1336.4
2023-01-08T02:59:05.630Z,1335.6
2023-01-08T03:00:05.607Z,1334.7
2023-01-08T03:01:05.612Z,1335
2023-01-08T03:02:05.720Z,1334.7
2023-01-08T03:03:05.612Z,1335.4
2023-01-08T03:04:05.652Z,1334.5
2023-01-08T03:05:05.633Z,1334.2
2023-01-08T03:06:05.617Z,1334.8
2023-01-08T03:07:05.653Z,1334.3
2023-01-08T03:08:05.617Z,1332.9
2023-01-08T03:09:05.726Z,1332.7
2023-01-08T03:10:05.613Z,1333.1
2023-01-08T03:11:05.634Z,1333.5
2023-01-08T03:12:05.611Z,1332.9
2023-01-08T03:13:05.627Z,1333
2023-01-08T03:14:05.616Z,1333.2
2023-01-08T03:15:05.621Z,1332.1
2023-01-08T03:16:05.620Z,1334.6
2023-01-08T03:17:05.775Z,1333
2023-01-08T03:18:05.675Z,1332.8
2023-01-08T03:19:06.421Z,1333.2
2023-01-08T03:20:05.617Z,1333.2
2023-01-08T03:21:05.615Z,1333
2023-01-08T03:22:05.611Z,1333.1
2023-01-08T03:23:05.618Z,1332.1
2023-01-08T03:24:05.611Z,1333.7
2023-01-08T03:25:05.620Z,1333.6
2023-01-08T03:26:05.611Z,1333.4
2023-01-08T03:27:05.616Z,1332.9
2023-01-08T03:28:05.628Z,1333.4
2023-01-08T03:29:05.613Z,1332.7
2023-01-08T03:30:05.647Z,1332.5
2023-01-08T03:31:05.667Z,1333.1
2023-01-08T03:32:05.632Z,1332.3
2023-01-08T03:33:05.619Z,1331.9
2023-01-08T03:34:05.625Z,1333.5
2023-01-08T03:35:05.622Z,1333
2023-01-08T03:36:05.616Z,1333.2
2023-01-08T03:37:05.610Z,1333.6
2023-01-08T03:38:05.625Z,1332.9
2023-01-08T03:39:05.613Z,1332.3
2023-01-08T03:40:05.749Z,1333
2023-01-08T03:41:05.628Z,1332.6
2023-01-08T03:42:05.626Z,1332.2
2023-01-08T03:43:05.616Z,1331.4
2023-01-08T03:44:05.620Z,1332
2023-01-08T03:45:05.654Z,1331.4
2023-01-08T03:46:05.724Z,1331.7
2023-01-08T03:47:05.648Z,1331.7
2023-01-08T03:48:05.659Z,1331.8
2023-01-08T03:49:05.636Z,1332.4
2023-01-08T03:50:05.634Z,1332.1
2023-01-08T03:51:05.615Z,1332
2023-01-08T03:52:05.640Z,1332.6
2023-01-08T03:53:05.629Z,1332.5
2023-01-08T03:54:05.632Z,1331.6
2023-01-08T03:55:05.635Z,1332.9
2023-01-08T03:56:05.615Z,1332.3
2023-01-08T03:57:05.627Z,1331.9
2023-01-08T03:58:05.622Z,1331.8
2023-01-08T03:59:05.621Z,1332.7
2023-01-08T04:00:05.659Z,1332.8
2023-01-08T04:01:05.623Z,1332.1
2023-01-08T04:02:05.737Z,1333
2023-01-08T04:03:05.921Z,1333
2023-01-08T04:04:05.720Z,1332.6
2023-01-08T04:05:05.616Z,1332.8
2023-01-08T04:06:05.629Z,1332
2023-01-08T04:07:05.628Z,1332.1
2023-01-08T04:08:05.628Z,1332.2
2023-01-08T04:09:05.694Z,1331.6
2023-01-08T04:10:05.641Z,1331.8
2023-01-08T04:11:05.739Z,1331.9
2023-01-08T04:12:05.634Z,1332.1
2023-01-08T04:13:05.653Z,1332.7
2023-01-08T04:14:05.622Z,1332.5
2023-01-08T04:15:05.626Z,1333
2023-01-08T04:16:05.706Z,1331.7
2023-01-08T04:17:05.623Z,1332.6
2023-01-08T04:18:05.639Z,1331.8
2023-01-08T04:19:05.619Z,1332.2
2023-01-08T04:20:05.630Z,1332.8
2023-01-08T04:21:05.630Z,1332.1
2023-01-08T04:22:05.625Z,1332.3
2023-01-08T04:23:05.625Z,1331.8
2023-01-08T04:24:05.615Z,1332.1
2023-01-08T04:25:05.621Z,1331.9
2023-01-08T04:26:05.645Z,1333.4
2023-01-08T04:27:05.635Z,1331.8
2023-01-08T04:28:05.627Z,1331.6
2023-01-08T04:29:05.623Z,1332.5
2023-01-08T04:30:05.624Z,1332.1
2023-01-08T04:31:05.764Z,1332.4
2023-01-08T04:32:05.626Z,1332.1
2023-01-08T04:33:05.629Z,1332.4
2023-01-08T04:34:05.634Z,1333.2
2023-01-08T04:35:05.631Z,1332.6
2023-01-08T04:36:05.650Z,1332.5
2023-01-08T04:37:05.627Z,1332.5
2023-01-08T04:38:05.630Z,1332.7
2023-01-08T04:39:05.628Z,1333
2023-01-08T04:40:05.623Z,1332.4
2023-01-08T04:41:05.628Z,1332.4
2023-01-08T04:42:05.745Z,1332.4
2023-01-08T04:43:05.654Z,1332.1
2023-01-08T04:44:05.627Z,1332.2
2023-01-08T04:45:05.628Z,1332.5
2023-01-08T04:46:05.690Z,1333.5
2023-01-08T04:47:05.630Z,1332.4
2023-01-08T04:48:05.625Z,1333.4
2023-01-08T04:49:05.625Z,1331.5
2023-01-08T04:50:05.628Z,1332.8
2023-01-08T04:51:05.622Z,1333
2023-01-08T04:52:05.628Z,1332.4
2023-01-08T04:53:05.632Z,1332.7
2023-01-08T04:54:05.623Z,1333.1
2023-01-08T04:55:05.626Z,1332.7
2023-01-08T04:56:05.627Z,1332.5
2023-01-08T04:57:05.681Z,1333
2023-01-08T04:58:05.640Z,1331.6
2023-01-08T04:59:05.640Z,1332
2023-01-08T05:00:05.631Z,1330.7
2023-01-08T05:01:05.730Z,1332.5
2023-01-08T05:02:05.822Z,1331.7
2023-01-08T05:03:05.693Z,1332.5
2023-01-08T05:04:05.626Z,1331.4
2023-01-08T05:05:05.631Z,1332.2
2023-01-08T05:06:05.627Z,1331.9
2023-01-08T05:07:05.622Z,1332.3
2023-01-08T05:08:05.655Z,1332
2023-01-08T05:09:05.629Z,1333
2023-01-08T05:10:05.653Z,1332.3
2023-01-08T05:11:05.642Z,1332.6
2023-01-08T05:12:05.639Z,1332.2
2023-01-08T05:13:05.773Z,1332.9
2023-01-08T05:14:05.660Z,1333.4
2023-01-08T05:15:05.653Z,1333.1
2023-01-08T05:16:05.720Z,1332.8
2023-01-08T05:17:05.632Z,1332.1
2023-01-08T05:18:05.669Z,1332
2023-01-08T05:19:05.630Z,1332.3
2023-01-08T05:20:05.633Z,1332.5
2023-01-08T05:21:05.634Z,1332.3
2023-01-08T05:22:05.701Z,1333.2
2023-01-08T05:23:05.643Z,1332.2
2023-01-08T05:24:05.639Z,1331.3
2023-01-08T05:25:05.640Z,1331.4
2023-01-08T05:26:05.655Z,1331.9
2023-01-08T05:27:05.638Z,1331.7
2023-01-08T05:28:05.630Z,1332.1
2023-01-08T05:29:05.634Z,1332.7
2023-01-08T05:30:05.650Z,1332
2023-01-08T05:31:05.659Z,1332.1
2023-01-08T05:32:05.632Z,1332.6
2023-01-08T05:33:05.644Z,1332.9
2023-01-08T05:34:05.643Z,1332.9
2023-01-08T05:35:05.654Z,1332.7
2023-01-08T05:36:05.640Z,1332.1
2023-01-08T05:37:05.639Z,1332.2
2023-01-08T05:38:05.632Z,1332.4
2023-01-08T05:39:05.644Z,1333
2023-01-08T05:40:05.634Z,1332.1
2023-01-08T05:41:05.640Z,1331.6
2023-01-08T05:42:05.637Z,1333
2023-01-08T05:43:05.639Z,1332.5
2023-01-08T05:44:05.781Z,1332.8
2023-01-08T05:45:05.636Z,1332.2
2023-01-08T05:46:05.901Z,1331.8
2023-01-08T05:47:05.634Z,1331.5
2023-01-08T05:48:05.633Z,1332.4
2023-01-08T05:49:05.635Z,1332.3
2023-01-08T05:50:05.648Z,1332.5
2023-01-08T05:51:05.677Z,1331.6
2023-01-08T05:52:05.648Z,1331.8
2023-01-08T05:53:05.641Z,1332.1
2023-01-08T05:54:05.644Z,1331.9
2023-01-08T05:55:05.642Z,1332.9
2023-01-08T05:56:07.703Z,1332
2023-01-08T05:57:05.653Z,1331
2023-01-08T05:58:05.639Z,1331.6
2023-01-08T05:59:05.634Z,1331.9
2023-01-08T06:00:05.640Z,1331.6
2023-01-08T06:01:05.644Z,1331.5
2023-01-08T06:02:05.660Z,1332.9
2023-01-08T06:03:05.710Z,1333
2023-01-08T06:04:05.712Z,1332.5
2023-01-08T06:05:05.708Z,1332.9
2023-01-08T06:06:05.636Z,1333
2023-01-08T06:07:05.643Z,1333.3
2023-01-08T06:08:07.171Z,1332.3
2023-01-08T06:09:05.649Z,1331.5
2023-01-08T06:10:05.635Z,1332.1
2023-01-08T06:11:05.653Z,1332.9
2023-01-08T06:12:05.639Z,1331.6
2023-01-08T06:13:05.641Z,1331.8
2023-01-08T06:14:05.633Z,1331.7
2023-01-08T06:15:05.812Z,1331.4
2023-01-08T06:16:05.712Z,1332.1
2023-01-08T06:17:05.641Z,1332.2
2023-01-08T06:18:05.645Z,1332.4
2023-01-08T06:19:05.778Z,1332.1
2023-01-08T06:20:05.643Z,1331.6
2023-01-08T06:21:05.650Z,1332.1
2023-01-08T06:22:05.640Z,1332.5
2023-01-08T06:23:05.645Z,1332.7
2023-01-08T06:24:05.651Z,1332.5
2023-01-08T06:25:05.638Z,1332
2023-01-08T06:26:05.641Z,1332.1
2023-01-08T06:27:05.642Z,1332
2023-01-08T06:28:05.639Z,1332.3
2023-01-08T06:29:05.652Z,1332.8
2023-01-08T06:30:05.648Z,1332.5
2023-01-08T06:31:05.703Z,1332.7
2023-01-08T06:32:05.635Z,1333.6
2023-01-08T06:33:05.662Z,1332.1
2023-01-08T06:34:05.652Z,1332.7
2023-01-08T06:35:05.642Z,1333
2023-01-08T06:36:05.647Z,1333.5
2023-01-08T06:37:05.635Z,1333.1
2023-01-08T06:38:05.647Z,1333
2023-01-08T06:39:05.643Z,1332.9
2023-01-08T06:40:05.683Z,1332.8
2023-01-08T06:41:05.656Z,1332.5
2023-01-08T06:42:05.664Z,1332.2
2023-01-08T06:43:05.653Z,1333.1
2023-01-08T06:44:05.647Z,1333
2023-01-08T06:45:05.647Z,1332.8
2023-01-08T06:46:05.864Z,1333
2023-01-08T06:47:05.650Z,1332.4
2023-01-08T06:48:05.647Z,1331.5
2023-01-08T06:49:05.654Z,1331.5
2023-01-08T06:50:05.641Z,1332.5
2023-01-08T06:51:05.651Z,1332.2
2023-01-08T06:52:05.683Z,1331.9
2023-01-08T06:53:05.660Z,1330.5
2023-01-08T06:54:05.649Z,1331.4
2023-01-08T06:55:05.636Z,1331.6
2023-01-08T06:56:05.649Z,1331.4
2023-01-08T06:57:05.647Z,1330.3
2023-01-08T06:58:05.644Z,1330.8
2023-01-08T06:59:05.655Z,1329.8
2023-01-08T07:00:05.641Z,1330
2023-01-08T07:01:05.672Z,1329.6
2023-01-08T07:02:05.796Z,1331.1
2023-01-08T07:03:05.777Z,1329.6
2023-01-08T07:04:05.643Z,1329.6
2023-01-08T07:05:05.649Z,1329.7
2023-01-08T07:06:05.650Z,1329.6
2023-01-08T07:07:05.649Z,1329.5
2023-01-08T07:08:05.674Z,1330
2023-01-08T07:09:05.650Z,1329.2
2023-01-08T07:10:05.666Z,1329.4
2023-01-08T07:11:05.681Z,1328.3
2023-01-08T07:12:05.648Z,1328.8
2023-01-08T07:13:05.653Z,1329.6
2023-01-08T07:14:05.658Z,1328.6
2023-01-08T07:15:05.645Z,1328.8
2023-01-08T07:16:05.724Z,1327.8
2023-01-08T07:17:05.772Z,1328.6
2023-01-08T07:18:05.651Z,1328.1
2023-01-08T07:19:05.654Z,1327.5
2023-01-08T07:20:05.664Z,1327.4
2023-01-08T07:21:05.657Z,1325.8
2023-01-08T07:22:05.652Z,1326.6
2023-01-08T07:23:05.699Z,1328
2023-01-08T07:24:05.648Z,1327.9
2023-01-08T07:25:05.653Z,1326.1
2023-01-08T07:26:05.652Z,1326.4
2023-01-08T07:27:05.655Z,1328.6
2023-01-08T07:28:05.730Z,1326.6
2023-01-08T07:29:05.653Z,1327.3
2023-01-08T07:30:05.656Z,1327.1
2023-01-08T07:31:05.702Z,1328.3
2023-01-08T07:32:05.662Z,1327.6
2023-01-08T07:33:05.654Z,1327.9
2023-01-08T07:34:05.653Z,1328.2
2023-01-08T07:35:05.654Z,1327.5
2023-01-08T07:36:05.703Z,1327.8
2023-01-08T07:37:05.652Z,1328
2023-01-08T07:38:05.658Z,1328.4
2023-01-08T07:39:05.663Z,1326.9
2023-01-08T07:40:05.651Z,1325.5
2023-01-08T07:41:05.665Z,1326.8
2023-01-08T07:42:05.654Z,1325.4
2023-01-08T07:43:05.664Z,1326.4
2023-01-08T07:44:05.658Z,1325.2
2023-01-08T07:45:05.676Z,1325.1
2023-01-08T07:46:05.657Z,1327.6
2023-01-08T07:47:05.657Z,1326.4
2023-01-08T07:48:05.773Z,1326.7
2023-01-08T07:49:05.661Z,1327.7
2023-01-08T07:50:05.717Z,1326.8
2023-01-08T07:51:05.666Z,1327.7
2023-01-08T07:52:05.671Z,1327.1
2023-01-08T07:53:05.655Z,1327.1
2023-01-08T07:54:05.654Z,1325.1
2023-01-08T07:55:05.652Z,1326.4
2023-01-08T07:56:05.662Z,1327.4
2023-01-08T07:57:05.657Z,1327.5
2023-01-08T07:58:05.661Z,1325.7
2023-01-08T07:59:05.660Z,1326.6
2023-01-08T08:00:05.670Z,1325.2
2023-01-08T08:01:05.653Z,1322.3
2023-01-08T08:02:05.783Z,1325.5
2023-01-08T08:03:05.765Z,1324.1
2023-01-08T08:04:05.648Z,1326.3
2023-01-08T08:06:05.654Z,1326
2023-01-08T08:07:05.649Z,1325.3
2023-01-08T08:08:05.654Z,1326.3
2023-01-08T08:10:05.677Z,1321.2
2023-01-08T08:11:05.659Z,1323.4
2023-01-08T08:12:05.660Z,1322.5
2023-01-08T08:13:05.670Z,1324.2
2023-01-08T08:14:05.703Z,1315.6
2023-01-08T08:15:05.647Z,1322
2023-01-08T08:16:05.730Z,1323.5
2023-01-08T08:17:05.661Z,1322.9
2023-01-08T08:18:05.653Z,1318.4
2023-01-08T08:19:05.781Z,1315.7
2023-01-08T08:20:05.682Z,1314.5
2023-01-08T08:21:05.672Z,1315.6
2023-01-08T08:22:05.655Z,1319
2023-01-08T08:23:05.665Z,1317.4
2023-01-08T08:24:05.654Z,1317.3
2023-01-08T08:25:05.661Z,1326.2
2023-01-08T08:26:05.664Z,1324.8
2023-01-08T08:27:05.664Z,1323.9
2023-01-08T08:28:05.668Z,1324.8
2023-01-08T08:29:05.670Z,1324.5
2023-01-08T08:30:05.654Z,1324.2
2023-01-08T08:31:05.716Z,1325
2023-01-08T08:32:05.658Z,1325
2023-01-08T08:33:05.660Z,1325
2023-01-08T08:34:05.668Z,1324.1
2023-01-08T08:35:05.654Z,1323.8
2023-01-08T08:36:05.676Z,1322.7
2023-01-08T08:37:05.653Z,1325.3
2023-01-08T08:38:05.663Z,1320.5
2023-01-08T08:39:05.663Z,1323.8
2023-01-08T08:40:05.679Z,1317
2023-01-08T08:41:05.656Z,1315.1
2023-01-08T08:42:05.667Z,1316.6
2023-01-08T08:43:05.667Z,1324.1
2023-01-08T08:44:05.662Z,1315.3
2023-01-08T08:45:05.661Z,1317.9
2023-01-08T08:46:05.662Z,1313.8
2023-01-08T08:47:05.680Z,1314.7
2023-01-08T08:48:05.664Z,1315.3
2023-01-08T08:49:05.655Z,1314.9
2023-01-08T08:50:05.777Z,1314
2023-01-08T08:51:05.682Z,1313.7
2023-01-08T08:52:07.167Z,1314.5
2023-01-08T08:53:05.663Z,1316.9
2023-01-08T08:54:05.683Z,1313.1
2023-01-08T08:55:05.657Z,1315.8
2023-01-08T08:56:05.669Z,1314.1
2023-01-08T08:57:05.666Z,1315.7
2023-01-08T08:58:05.677Z,1315.7
2023-01-08T08:59:05.670Z,1316
2023-01-08T09:00:05.656Z,1314.8
2023-01-08T09:01:05.679Z,1315.5
2023-01-08T09:02:05.851Z,1316.2
2023-01-08T09:03:05.793Z,1316.9
2023-01-08T09:04:05.663Z,1316.5
2023-01-08T09:05:05.669Z,1316.5
2023-01-08T09:06:05.661Z,1316.2
2023-01-08T09:07:05.658Z,1315.5
2023-01-08T09:08:05.659Z,1315.9
2023-01-08T09:09:05.658Z,1318.3
2023-01-08T09:10:05.658Z,1316.3
2023-01-08T09:11:05.659Z,1316.8
2023-01-08T09:12:05.684Z,1318.6
2023-01-08T09:13:05.665Z,1316.9
2023-01-08T09:14:05.665Z,1316.7
2023-01-08T09:15:05.680Z,1316
2023-01-08T09:16:05.725Z,1317.1
2023-01-08T09:17:05.671Z,1312.3
2023-01-08T09:18:05.668Z,1315.5
2023-01-08T09:19:05.662Z,1313.7
2023-01-08T09:20:05.661Z,1314
2023-01-08T09:22:05.661Z,1314.5
2023-01-08T09:23:05.659Z,1314.9
2023-01-08T09:24:05.664Z,1312.9
2023-01-08T09:25:05.662Z,1312.7
2023-01-08T09:26:05.669Z,1311.3
2023-01-08T09:27:05.667Z,1312
2023-01-08T09:28:05.658Z,1309.5
2023-01-08T09:29:05.668Z,1305.6
2023-01-08T09:30:05.671Z,1310.6
2023-01-08T09:31:05.739Z,1313.8
2023-01-08T09:32:05.668Z,1311.1
2023-01-08T09:33:05.665Z,1312.2
2023-01-08T09:34:05.678Z,1315.2
2023-01-08T09:35:05.682Z,1310.7
2023-01-08T09:36:05.656Z,1314.4
2023-01-08T09:37:05.663Z,1316.2
2023-01-08T09:38:05.664Z,1314.1
2023-01-08T09:39:05.674Z,1313.2
2023-01-08T09:40:05.694Z,1314
2023-01-08T09:41:06.066Z,1314.8
2023-01-08T09:43:05.662Z,1314.4
2023-01-08T09:44:05.711Z,1309.1
2023-01-08T09:46:05.707Z,1312.6
2023-01-08T09:47:05.733Z,1312.5
2023-01-08T09:48:05.663Z,1312.8
2023-01-08T09:49:05.669Z,1313.4
2023-01-08T09:50:05.660Z,1285.6
2023-01-08T09:51:05.674Z,1296.1
2023-01-08T09:53:05.664Z,1291.5
2023-01-08T09:54:05.667Z,1279.1
2023-01-08T09:55:05.668Z,1273.4
2023-01-08T09:56:10.339Z,1161.4
2023-01-08T09:57:05.667Z,1161.4
2023-01-08T09:58:05.671Z,1161.4
2023-01-08T09:59:05.709Z,1161.4
2023-01-08T10:00:05.668Z,1161.4
2023-01-08T10:01:05.734Z,1161.4
2023-01-08T10:02:05.729Z,1161.4
2023-01-08T10:03:05.672Z,1161.4
2023-01-08T10:04:05.719Z,1161.4
2023-01-08T10:05:05.670Z,1161.4
2023-01-08T10:06:05.666Z,1161.4
2023-01-08T10:07:05.817Z,1161.4
2023-01-08T10:08:05.672Z,1161.4
2023-01-08T10:09:07.655Z,1161.4
2023-01-08T10:10:05.681Z,1161.4
2023-01-08T10:11:05.667Z,1161.4
2023-01-08T10:12:05.668Z,1161.4
2023-01-08T10:13:05.676Z,1161.4
2023-01-08T10:14:05.669Z,1161.4
2023-01-08T10:15:05.673Z,1161.4
2023-01-08T10:16:05.705Z,1161.4
2023-01-08T10:17:05.820Z,1161.4
2023-01-08T10:18:05.682Z,1161.4
2023-01-08T10:19:05.683Z,1161.4
2023-01-08T10:20:05.675Z,1161.4
2023-01-08T10:21:05.669Z,1161.4
2023-01-08T10:22:05.672Z,1161.4
2023-01-08T10:23:05.675Z,1161.4
2023-01-08T10:24:05.678Z,1161.4
2023-01-08T10:25:05.684Z,1161.4
2023-01-08T10:26:05.673Z,1161.4
2023-01-08T10:27:05.693Z,1161.4
2023-01-08T10:28:05.669Z,1161.4
2023-01-08T10:29:05.666Z,1161.4
2023-01-08T10:30:05.676Z,1161.4
2023-01-08T10:31:05.766Z,1161.4
2023-01-08T10:32:05.674Z,1161.4
2023-01-08T10:33:05.683Z,1161.4
2023-01-08T10:34:05.674Z,1161.4
2023-01-08T10:35:05.673Z,1161.4
2023-01-08T10:36:05.680Z,1161.4
2023-01-08T10:37:05.675Z,1161.4
2023-01-08T10:38:05.704Z,1161.4
2023-01-08T10:39:05.681Z,1161.4
2023-01-08T10:40:05.680Z,1161.4
2023-01-08T10:41:05.683Z,1161.4
2023-01-08T10:43:05.692Z,1161.4
2023-01-08T10:44:05.675Z,1161.4
2023-01-08T10:45:07.838Z,1161.4
2023-01-08T10:46:05.761Z,1161.4
2023-01-08T10:47:05.677Z,1161.4
2023-01-08T10:48:05.682Z,1161.4
2023-01-08T10:49:05.676Z,1161.4
2023-01-08T10:50:05.669Z,1161.4
2023-01-08T10:51:06.981Z,1161.4
2023-01-08T10:53:05.715Z,1161.4
2023-01-08T10:54:05.671Z,1161.4
2023-01-08T10:55:05.685Z,1161.4
2023-01-08T10:56:05.694Z,1161.4
2023-01-08T10:57:05.837Z,1161.4
2023-01-08T10:58:05.694Z,1161.4
2023-01-08T10:59:05.683Z,1161.4
2023-01-08T11:00:05.686Z,1161.4
2023-01-08T11:01:05.742Z,1161.4
2023-01-08T11:02:05.787Z,1161.4
2023-01-08T11:03:05.678Z,1161.4
2023-01-08T11:04:05.689Z,1161.4
2023-01-08T11:05:05.706Z,1161.4
2023-01-08T11:06:05.685Z,1333.6
2023-01-08T11:07:05.682Z,1334.9
2023-01-08T11:08:05.681Z,1336.9
2023-01-08T11:09:05.728Z,1337.4
2023-01-08T11:10:05.681Z,1337.6
2023-01-08T11:11:05.676Z,1337.7
2023-01-08T11:12:05.686Z,1338
2023-01-08T11:13:05.685Z,1336
2023-01-08T11:14:05.683Z,1336.4
2023-01-08T11:15:05.695Z,1336.9
2023-01-08T11:16:05.748Z,1337.3
2023-01-08T11:17:05.694Z,1335.3
2023-01-08T11:18:05.676Z,1336.4
2023-01-08T11:19:05.690Z,1337.2
2023-01-08T11:20:05.682Z,1335.8
2023-01-08T11:21:05.681Z,1335.6
2023-01-08T11:22:05.732Z,1334.5
2023-01-08T11:23:05.687Z,1332.8
2023-01-08T11:24:05.678Z,1333.6
2023-01-08T11:25:05.825Z,1334.4
2023-01-08T11:26:05.694Z,1332.4
2023-01-08T11:27:05.685Z,1333.1
2023-01-08T11:28:05.676Z,1332.7
2023-01-08T11:29:05.680Z,1333
2023-01-08T11:30:05.708Z,1332.3
2023-01-08T11:31:05.683Z,1332.3
2023-01-08T11:32:05.681Z,1330.2
2023-01-08T11:33:05.689Z,1330.4
2023-01-08T11:34:05.675Z,1331.4
2023-01-08T11:35:05.683Z,1330.3
2023-01-08T11:37:05.711Z,1331.5
2023-01-08T11:38:05.697Z,1331.9
2023-01-08T11:39:05.688Z,1330.6
2023-01-08T11:40:05.711Z,1328.8
2023-01-08T11:41:05.691Z,1328.2
2023-01-08T11:42:05.686Z,1328.7
2023-01-08T11:43:05.682Z,1328.5
2023-01-08T11:44:05.684Z,1328.8
2023-01-08T11:45:05.691Z,1328.6
2023-01-08T11:46:05.712Z,1328.7
2023-01-08T11:47:05.686Z,1328.3
2023-01-08T11:48:05.685Z,1328.9
2023-01-08T11:49:05.680Z,1327.1
2023-01-08T11:50:05.687Z,1329
2023-01-08T11:51:05.685Z,1329.1
2023-01-08T11:52:05.689Z,1327.2
2023-01-08T11:53:05.684Z,1328.1
2023-01-08T11:54:05.711Z,1329
2023-01-08T11:55:05.685Z,1329.4
2023-01-08T11:56:05.690Z,1331.4
2023-01-08T11:57:05.684Z,1327.5
2023-01-08T11:58:05.681Z,1328.9
2023-01-08T11:59:05.751Z,1326.3
2023-01-08T12:00:05.695Z,1326.5
2023-01-08T12:01:05.683Z,1326.3
2023-01-08T12:02:05.738Z,1326
2023-01-08T12:03:05.720Z,1326.1
2023-01-08T12:04:05.711Z,1325.4
2023-01-08T12:05:05.688Z,1324.3
2023-01-08T12:06:05.687Z,1325.7
2023-01-08T12:07:05.689Z,1325.9
2023-01-08T12:08:06.673Z,1326.9
2023-01-08T12:09:05.685Z,1326.1
2023-01-08T12:10:05.709Z,1326.4
2023-01-08T12:11:05.721Z,1321.3
2023-01-08T12:12:05.682Z,1321.9
2023-01-08T12:13:05.724Z,1320.2
2023-01-08T12:14:05.693Z,1318.1
2023-01-08T12:15:05.700Z,1316.9
2023-01-08T12:16:05.721Z,1317.5
2023-01-08T12:17:05.688Z,1317.5
2023-01-08T12:18:05.689Z,1318.6
2023-01-08T12:19:05.697Z,1317.2
2023-01-08T12:20:05.697Z,1315.8
2023-01-08T12:21:05.693Z,1316.8
2023-01-08T12:22:05.715Z,1315.7
2023-01-08T12:23:05.693Z,1315.5
2023-01-08T12:24:05.696Z,1316.6
2023-01-08T12:25:05.692Z,1315
2023-01-08T12:26:05.694Z,1313.5
2023-01-08T12:27:05.687Z,1314.2
2023-01-08T12:28:05.715Z,1311.6
2023-01-08T12:29:05.692Z,1311
2023-01-08T12:30:05.732Z,1311.8
2023-01-08T12:31:05.688Z,1315
2023-01-08T12:32:06.753Z,1314.2
2023-01-08T12:33:05.713Z,1313.7
2023-01-08T12:34:05.695Z,1314.7
2023-01-08T12:35:05.772Z,1314.7
2023-01-08T12:36:05.688Z,1313.9
2023-01-08T12:37:05.702Z,1313.8
2023-01-08T12:38:05.693Z,1313.8
2023-01-08T12:39:05.690Z,1315.1
2023-01-08T12:40:05.702Z,1315.6
2023-01-08T12:41:05.696Z,1317.7
2023-01-08T12:42:05.720Z,1317.3
2023-01-08T12:43:05.927Z,1317.4
2023-01-08T12:44:05.694Z,1317.1
2023-01-08T12:45:05.758Z,1317.4
2023-01-08T12:46:05.752Z,1317.4
2023-01-08T12:47:05.703Z,1314
2023-01-08T12:48:05.685Z,1314.6